Hauptseite
METAR-TAF:

METAR-TAF

Flughäfen :

Aupaluk, Québec, Kanada

Breite: 59-17-48N, Länge: 069-35-59W, Höhe: 35 m

Beobachtung

Neuester Wetterbericht von vor 10 Stunden und 23 Minuten, um 22:00 UTC
Wind 13 kt aus West/Nordwest, Böen bis zu 22 kt
Temperatur -11°C
Luftfeuchtigkeit 78%
Luftdruck 1003 hPa
Sichtweite: 24.1 km
Leicht bewölkt in der Höhe von 3500 ft
Durchbrochene Bewölkung in der Höhe von 7000 ft
Schneefegen

METAR: CYLA 182200Z 29013G22KT 15SM DRSN FEW035 BKN070 M11/M14 A2961 RMK SC2AC5 LAST STFD OBS/NEXT 191300UTC SLP031

Zeit: 03:23 (08:23 UTC)


TAF: fehlend

Wetterbeobachtungen und Prognosen von mehr als 4000 Flughäfen (METAR und TAF Bericht).

Die verfügbaren Stationen werden durch gelbe und rote Markierungen auf der Karte dargestellt.

Führen Sie die Maus auf sie, um den Namen der Station zu sehen.

Darauf klicken, um die Beobachtung von Wetterbeobachtungen und Prognosen zu sehen.

Um die Karte zu ändern : klicken Sie auf den grünen Tasten mit einem schwarzen Kreuz Zum Vergrößern, auf den grünen Button mit einem Gedankenstrich zu verkleinern, oder auf die grünen Pfeile für benachbarte Karten.


METAR-TAF: